createdAt,value
2023-05-05T00:00:13.173Z,3.73
2023-05-05T00:02:17.848Z,4.40
2023-05-05T00:04:22.665Z,4.63
2023-05-05T00:06:27.894Z,4.40
2023-05-05T00:08:31.384Z,5.23
2023-05-05T00:10:34.709Z,4.70
2023-05-05T00:12:38.103Z,6.53
2023-05-05T00:14:42.337Z,4.33
2023-05-05T00:16:45.746Z,4.90
2023-05-05T00:18:50.424Z,5.13
2023-05-05T00:20:53.741Z,5.70
2023-05-05T00:22:57.331Z,5.80
2023-05-05T00:25:00.771Z,5.50
2023-05-05T00:27:04.298Z,5.23
2023-05-05T00:29:08.538Z,6.10
2023-05-05T00:31:11.891Z,5.57
2023-05-05T00:33:15.231Z,5.40
2023-05-05T00:35:20.020Z,5.80
2023-05-05T00:37:23.372Z,9.70
2023-05-05T00:39:26.649Z,4.90
2023-05-05T00:41:30.205Z,6.20
2023-05-05T00:43:33.485Z,5.60
2023-05-05T00:45:39.090Z,4.10
2023-05-05T00:47:44.301Z,5.27
2023-05-05T00:49:47.708Z,4.70
2023-05-05T00:51:52.400Z,5.93
2023-05-05T00:53:56.091Z,5.43
2023-05-05T00:56:00.194Z,5.13
2023-05-05T00:58:04.264Z,5.50
2023-05-05T01:00:10.828Z,5.70
2023-05-05T01:02:14.830Z,4.50
2023-05-05T01:04:18.445Z,5.33
2023-05-05T01:06:37.432Z,5.27
2023-05-05T01:08:52.478Z,4.50
2023-05-05T01:11:03.138Z,4.57
2023-05-05T01:13:22.381Z,5.83
2023-05-05T01:15:34.294Z,5.77
2023-05-05T01:17:43.483Z,5.63
2023-05-05T01:20:00.040Z,8.50
2023-05-05T01:22:08.092Z,4.83
2023-05-05T01:24:44.891Z,5.10
2023-05-05T01:27:11.068Z,4.90
2023-05-05T01:29:32.532Z,4.83
2023-05-05T01:31:53.044Z,5.07
2023-05-05T01:34:01.642Z,5.40
2023-05-05T01:36:11.519Z,6.47
2023-05-05T01:38:18.099Z,5.67
2023-05-05T01:40:26.717Z,5.97
2023-05-05T01:42:31.687Z,6.50
2023-05-05T01:44:37.450Z,5.47
2023-05-05T01:46:40.869Z,6.33
2023-05-05T01:48:47.482Z,4.43
2023-05-05T01:50:53.180Z,4.90
2023-05-05T01:52:58.231Z,4.80
2023-05-05T01:55:03.906Z,5.20
2023-05-05T01:57:09.527Z,4.80
2023-05-05T01:59:13.961Z,3.97
2023-05-05T02:01:19.830Z,5.50
2023-05-05T02:03:25.752Z,4.70
2023-05-05T02:05:31.706Z,3.90
2023-05-05T02:07:36.740Z,3.90
2023-05-05T02:09:41.752Z,5.57
2023-05-05T02:11:45.237Z,5.57
2023-05-05T02:13:50.733Z,4.37
2023-05-05T02:15:56.327Z,4.80
2023-05-05T02:18:01.483Z,5.03
2023-05-05T02:20:08.293Z,4.63
2023-05-05T02:22:15.422Z,3.70
2023-05-05T02:24:18.788Z,4.47
2023-05-05T02:26:24.683Z,4.57
2023-05-05T02:28:34.382Z,4.87
2023-05-05T02:30:39.792Z,4.23
2023-05-05T02:32:49.497Z,6.10
2023-05-05T02:34:55.369Z,4.33
2023-05-05T02:37:01.800Z,4.40
2023-05-05T02:39:15.308Z,4.70
2023-05-05T02:41:22.254Z,5.13
2023-05-05T02:43:28.782Z,5.27
2023-05-05T02:45:32.268Z,5.40
2023-05-05T02:47:37.708Z,4.97
2023-05-05T02:49:43.534Z,5.60
2023-05-05T02:51:47.038Z,5.77
2023-05-05T02:54:00.044Z,4.60
2023-05-05T02:56:17.340Z,4.70
2023-05-05T02:58:32.279Z,4.57
2023-05-05T03:00:44.957Z,5.07
2023-05-05T03:02:56.386Z,5.20
2023-05-05T03:05:05.341Z,4.73
2023-05-05T03:07:16.570Z,4.40
2023-05-05T03:09:30.958Z,5.17
2023-05-05T03:11:41.611Z,4.10
2023-05-05T03:13:48.866Z,4.30
2023-05-05T03:15:57.861Z,5.40
2023-05-05T03:18:04.255Z,5.10
2023-05-05T03:20:09.403Z,4.57
2023-05-05T03:22:17.124Z,6.50
2023-05-05T03:24:23.116Z,5.83
2023-05-05T03:26:35.249Z,5.67
2023-05-05T03:28:40.415Z,4.83
2023-05-05T03:30:51.891Z,5.97
2023-05-05T03:32:55.510Z,4.53
2023-05-05T03:34:59.012Z,5.63
2023-05-05T03:37:07.936Z,4.97
2023-05-05T03:39:11.785Z,4.83
2023-05-05T03:41:15.162Z,5.57
2023-05-05T03:43:19.576Z,4.97
2023-05-05T03:45:24.503Z,4.80
2023-05-05T03:47:29.963Z,4.93
2023-05-05T03:49:33.767Z,6.60
2023-05-05T03:51:37.331Z,9.27
2023-05-05T03:53:40.725Z,9.13
2023-05-05T03:55:45.285Z,8.63
2023-05-05T03:57:48.989Z,8.30
2023-05-05T03:59:52.274Z,7.10
2023-05-05T04:01:57.768Z,6.53
2023-05-05T04:04:01.216Z,7.07
2023-05-05T04:06:05.941Z,8.83
2023-05-05T04:08:10.152Z,8.87
2023-05-05T04:10:13.453Z,8.50
2023-05-05T04:12:16.855Z,7.40
2023-05-05T04:14:20.496Z,6.57
2023-05-05T04:16:31.093Z,6.43
2023-05-05T04:18:38.627Z,6.37
2023-05-05T04:20:44.153Z,5.90
2023-05-05T04:22:49.136Z,8.43
2023-05-05T04:24:54.471Z,9.40
2023-05-05T04:26:59.011Z,8.00
2023-05-05T04:29:03.435Z,6.93
2023-05-05T04:31:06.862Z,7.63
2023-05-05T04:33:13.587Z,6.60
2023-05-05T04:35:19.136Z,7.20
2023-05-05T04:37:22.706Z,9.47
2023-05-05T04:39:26.358Z,11.10
2023-05-05T04:41:30.161Z,8.27
2023-05-05T04:43:34.047Z,8.60
2023-05-05T04:45:37.450Z,6.53
2023-05-05T04:47:42.177Z,6.60
2023-05-05T04:49:45.886Z,5.83
2023-05-05T04:51:50.985Z,9.00
2023-05-05T04:53:54.440Z,10.00
2023-05-05T04:55:57.899Z,8.70
2023-05-05T04:58:01.268Z,7.50
2023-05-05T05:00:06.702Z,7.93
2023-05-05T05:02:10.200Z,6.83
2023-05-05T05:04:13.856Z,7.20
2023-05-05T05:06:17.135Z,6.93
2023-05-05T05:08:21.892Z,5.27
2023-05-05T05:10:25.331Z,6.60
2023-05-05T05:12:28.802Z,6.10
2023-05-05T05:14:37.731Z,5.50
2023-05-05T05:16:41.230Z,6.00
2023-05-05T05:18:44.573Z,6.87
2023-05-05T05:20:47.949Z,4.83
2023-05-05T05:22:52.102Z,4.93
2023-05-05T05:24:58.865Z,6.30
2023-05-05T05:27:02.785Z,6.03
2023-05-05T05:29:06.123Z,5.70
2023-05-05T05:31:09.741Z,11.17
2023-05-05T05:33:13.176Z,5.10
2023-05-05T05:35:17.972Z,5.60
2023-05-05T05:37:21.860Z,5.50
2023-05-05T05:39:25.366Z,5.80
2023-05-05T05:41:30.263Z,5.60
2023-05-05T05:43:34.316Z,5.57
2023-05-05T05:45:37.964Z,8.10
2023-05-05T05:47:43.862Z,6.30
2023-05-05T05:49:48.052Z,6.17
2023-05-05T05:51:51.730Z,5.03
2023-05-05T05:53:56.328Z,5.40
2023-05-05T05:56:01.317Z,6.90
2023-05-05T05:58:06.101Z,6.20
2023-05-05T06:00:10.929Z,6.80
2023-05-05T06:02:20.913Z,6.90
2023-05-05T06:04:24.744Z,6.40
2023-05-05T06:06:28.662Z,6.67
2023-05-05T06:08:32.197Z,8.03
2023-05-05T06:10:35.654Z,6.50
2023-05-05T06:12:43.777Z,6.40
2023-05-05T06:14:48.418Z,6.27
2023-05-05T06:16:52.720Z,6.17
2023-05-05T06:18:58.579Z,6.23
2023-05-05T06:21:02.089Z,5.77
2023-05-05T06:23:06.142Z,6.47
2023-05-05T06:25:12.731Z,8.43
2023-05-05T06:27:16.213Z,8.03
2023-05-05T06:29:19.559Z,8.10
2023-05-05T06:31:24.394Z,11.00
2023-05-05T06:33:27.871Z,8.97
2023-05-05T06:35:31.959Z,9.10
2023-05-05T06:37:35.356Z,9.03
2023-05-05T06:39:38.669Z,9.33
2023-05-05T06:41:42.048Z,8.30
2023-05-05T06:43:45.340Z,11.63
2023-05-05T06:45:50.294Z,12.20
2023-05-05T06:47:54.989Z,10.43
2023-05-05T06:49:58.423Z,13.00
2023-05-05T06:52:01.861Z,14.43
2023-05-05T06:54:05.647Z,12.87
2023-05-05T06:56:09.302Z,10.47
2023-05-05T06:58:13.105Z,12.30
2023-05-05T07:00:17.750Z,12.27
2023-05-05T07:02:25.254Z,11.23
2023-05-05T07:04:31.577Z,12.30
2023-05-05T07:06:35.043Z,12.40
2023-05-05T07:08:38.491Z,11.73
2023-05-05T07:10:41.975Z,10.97
2023-05-05T07:12:45.502Z,9.67
2023-05-05T07:14:48.871Z,10.70
2023-05-05T07:16:52.307Z,14.03
2023-05-05T07:18:56.130Z,11.70
2023-05-05T07:21:01.343Z,11.13
2023-05-05T07:23:04.665Z,11.40
2023-05-05T07:25:09.206Z,11.27
2023-05-05T07:27:12.576Z,11.10
2023-05-05T07:29:16.265Z,11.47
2023-05-05T07:31:21.886Z,12.80
2023-05-05T07:33:25.406Z,12.33
2023-05-05T07:35:28.974Z,11.20
2023-05-05T07:37:33.847Z,11.10
2023-05-05T07:39:37.346Z,12.30
2023-05-05T07:41:40.814Z,9.00
2023-05-05T07:43:44.760Z,10.07
2023-05-05T07:45:48.361Z,11.03
2023-05-05T07:47:52.011Z,10.13
2023-05-05T07:49:55.415Z,10.23
2023-05-05T07:51:58.875Z,12.00
2023-05-05T07:54:03.663Z,11.60
2023-05-05T07:56:08.755Z,12.80
2023-05-05T07:58:12.223Z,9.83
2023-05-05T08:00:19.271Z,8.63
2023-05-05T08:02:23.112Z,9.13
2023-05-05T08:04:26.502Z,9.93
2023-05-05T08:06:30.246Z,12.10
2023-05-05T08:08:33.594Z,10.20
2023-05-05T08:10:38.362Z,12.57
2023-05-05T08:12:41.759Z,11.07
2023-05-05T08:14:45.381Z,10.30
2023-05-05T08:16:48.905Z,8.83
2023-05-05T08:18:53.371Z,7.83
2023-05-05T08:20:57.203Z,8.00
2023-05-05T08:23:00.871Z,8.50
2023-05-05T08:25:04.715Z,10.20
2023-05-05T08:27:09.626Z,10.30
2023-05-05T08:29:12.955Z,9.77
2023-05-05T08:31:16.918Z,10.70
2023-05-05T08:33:20.346Z,8.60
2023-05-05T08:35:23.863Z,9.00
2023-05-05T08:37:27.294Z,11.10
2023-05-05T08:39:30.759Z,8.17
2023-05-05T08:41:34.362Z,9.57
2023-05-05T08:43:39.637Z,9.57
2023-05-05T08:45:43.116Z,10.47
2023-05-05T08:47:46.760Z,9.33
2023-05-05T08:49:50.553Z,9.00
2023-05-05T08:51:56.129Z,8.50
2023-05-05T08:54:04.144Z,7.20
2023-05-05T08:56:08.893Z,7.87
2023-05-05T08:58:13.859Z,11.00
2023-05-05T09:00:19.788Z,9.37
2023-05-05T09:02:28.360Z,9.10
2023-05-05T09:04:32.487Z,9.80
2023-05-05T09:06:37.120Z,8.63
2023-05-05T09:08:41.133Z,9.40
2023-05-05T09:10:44.642Z,9.77
2023-05-05T09:12:50.105Z,10.00
2023-05-05T09:14:53.470Z,11.00
2023-05-05T09:16:58.284Z,12.77
2023-05-05T09:19:03.238Z,11.17
2023-05-05T09:21:20.694Z,9.17
2023-05-05T09:23:24.118Z,10.10
2023-05-05T09:25:27.577Z,9.70
2023-05-05T09:27:31.139Z,8.20
2023-05-05T09:29:34.555Z,8.80
2023-05-05T09:31:38.157Z,6.53
2023-05-05T09:33:43.145Z,10.13
2023-05-05T09:35:50.786Z,8.70
2023-05-05T09:37:53.866Z,10.10
2023-05-05T09:39:58.711Z,9.90
2023-05-05T09:42:03.688Z,10.13
2023-05-05T09:44:07.506Z,10.67
2023-05-05T09:46:10.901Z,10.43
2023-05-05T09:48:27.365Z,9.87
2023-05-05T09:50:44.400Z,10.20
2023-05-05T09:52:55.590Z,12.47
2023-05-05T09:54:58.994Z,11.80
2023-05-05T09:57:02.407Z,11.27
2023-05-05T09:59:12.136Z,9.50
2023-05-05T10:01:23.763Z,9.50
2023-05-05T10:03:27.287Z,9.53
2023-05-05T10:05:32.072Z,9.03
2023-05-05T10:07:36.211Z,9.57
2023-05-05T10:09:39.616Z,9.00
2023-05-05T10:11:43.517Z,7.50
2023-05-05T10:13:47.104Z,9.10
2023-05-05T10:15:52.032Z,8.80
2023-05-05T10:18:07.067Z,11.73
2023-05-05T10:20:14.290Z,10.93
2023-05-05T10:22:23.610Z,8.60
2023-05-05T10:24:31.754Z,9.60
2023-05-05T10:26:40.034Z,7.10
2023-05-05T10:28:46.939Z,8.57
2023-05-05T10:30:53.980Z,7.63
2023-05-05T10:33:22.846Z,7.80
2023-05-05T10:35:29.478Z,7.43
2023-05-05T10:37:34.788Z,8.97
2023-05-05T10:39:39.444Z,8.90
2023-05-05T10:41:43.917Z,9.00
2023-05-05T10:43:48.393Z,12.90
2023-05-05T10:45:52.066Z,7.80
2023-05-05T10:48:00.218Z,9.67
2023-05-05T10:50:11.161Z,8.40
2023-05-05T10:52:21.847Z,8.47
2023-05-05T10:54:34.669Z,16.50
2023-05-05T10:56:41.846Z,9.77
2023-05-05T10:58:59.140Z,9.07
2023-05-05T11:01:03.582Z,9.63
2023-05-05T11:03:25.657Z,8.30
2023-05-05T11:05:29.086Z,8.43
2023-05-05T11:07:34.301Z,7.47
2023-05-05T11:09:56.040Z,7.03
2023-05-05T11:12:07.306Z,7.60
2023-05-05T11:14:22.922Z,6.80
2023-05-05T11:16:47.359Z,6.17
2023-05-05T11:18:50.819Z,5.13
2023-05-05T11:21:17.188Z,6.67
2023-05-05T11:23:23.765Z,9.17
2023-05-05T11:25:51.454Z,6.77
2023-05-05T11:28:05.878Z,5.50
2023-05-05T11:30:10.743Z,5.37
2023-05-05T11:32:15.660Z,4.60
2023-05-05T11:34:28.733Z,7.57
2023-05-05T11:36:41.849Z,6.17
2023-05-05T11:39:06.037Z,12.30
2023-05-05T11:41:14.768Z,6.13
2023-05-05T11:43:19.930Z,4.07
2023-05-05T11:45:24.571Z,4.70
2023-05-05T11:47:33.429Z,3.00
2023-05-05T11:49:37.908Z,3.00
2023-05-05T11:51:41.402Z,4.93
2023-05-05T11:53:46.025Z,3.80
2023-05-05T11:55:49.409Z,4.47
2023-05-05T11:57:54.143Z,4.73
2023-05-05T12:00:00.141Z,3.17
2023-05-05T12:02:06.002Z,6.87
2023-05-05T12:04:12.582Z,3.80
2023-05-05T12:06:16.075Z,3.70
2023-05-05T12:08:19.688Z,3.83
2023-05-05T12:10:26.063Z,5.37
2023-05-05T12:12:37.065Z,4.50
2023-05-05T12:14:51.590Z,4.07
2023-05-05T12:16:55.878Z,5.50
2023-05-05T12:19:05.645Z,4.60
2023-05-05T12:21:16.641Z,4.67
2023-05-05T12:23:20.557Z,3.93
2023-05-05T12:25:24.262Z,3.97
2023-05-05T12:27:29.017Z,3.37
2023-05-05T12:29:32.464Z,2.90
2023-05-05T12:31:37.938Z,4.23
2023-05-05T12:33:42.000Z,3.50
2023-05-05T12:35:45.464Z,3.30
2023-05-05T12:37:48.846Z,2.90
2023-05-05T12:39:52.501Z,4.03
2023-05-05T12:42:03.496Z,3.57
2023-05-05T12:44:06.884Z,4.50
2023-05-05T12:46:12.261Z,3.50
2023-05-05T12:48:26.357Z,3.67
2023-05-05T12:50:33.069Z,7.37
2023-05-05T12:52:44.000Z,7.97
2023-05-05T12:54:57.495Z,5.73
2023-05-05T12:57:12.406Z,4.73
2023-05-05T12:59:30.625Z,3.80
2023-05-05T13:01:34.587Z,3.00
2023-05-05T13:03:39.477Z,4.20
2023-05-05T13:05:43.076Z,4.43
2023-05-05T13:07:53.577Z,4.80
2023-05-05T13:10:10.415Z,3.73
2023-05-05T13:12:13.839Z,4.30
2023-05-05T13:14:17.168Z,3.50
2023-05-05T13:16:20.698Z,5.53
2023-05-05T13:18:24.353Z,3.77
2023-05-05T13:20:29.273Z,3.90
2023-05-05T13:22:32.662Z,4.13
2023-05-05T13:24:49.914Z,3.83
2023-05-05T13:26:56.463Z,5.07
2023-05-05T13:28:59.811Z,7.13
2023-05-05T13:31:03.203Z,6.33
2023-05-05T13:33:06.505Z,4.20
2023-05-05T13:35:13.205Z,4.77
2023-05-05T13:37:19.506Z,4.63
2023-05-05T13:39:22.975Z,5.73
2023-05-05T13:41:26.415Z,4.97
2023-05-05T13:43:29.945Z,9.57
2023-05-05T13:45:33.491Z,4.80
2023-05-05T13:47:37.206Z,5.37
2023-05-05T13:49:40.513Z,6.50
2023-05-05T13:51:45.122Z,5.00
2023-05-05T13:53:49.960Z,6.30
2023-05-05T13:55:53.358Z,4.13
2023-05-05T13:57:56.818Z,4.40
2023-05-05T14:00:00.179Z,4.90
2023-05-05T14:02:03.508Z,5.83
2023-05-05T14:04:06.920Z,4.10
2023-05-05T14:06:10.329Z,3.40
2023-05-05T14:08:14.371Z,3.13
2023-05-05T14:10:21.719Z,3.27
2023-05-05T14:12:25.067Z,2.93
2023-05-05T14:14:28.420Z,3.37
2023-05-05T14:16:31.760Z,2.53
2023-05-05T14:18:35.185Z,2.37
2023-05-05T14:20:38.625Z,2.20
2023-05-05T14:22:42.171Z,2.43
2023-05-05T14:24:45.481Z,2.60
2023-05-05T14:26:50.212Z,5.70
2023-05-05T14:28:53.505Z,2.47
2023-05-05T14:30:58.029Z,4.63
2023-05-05T14:33:02.204Z,2.67
2023-05-05T14:35:06.548Z,2.00
2023-05-05T14:37:10.072Z,1.70
2023-05-05T14:39:13.356Z,1.70
2023-05-05T14:41:16.785Z,1.40
2023-05-05T14:43:21.867Z,1.70
2023-05-05T14:45:26.304Z,2.40
2023-05-05T14:47:29.746Z,2.17
2023-05-05T14:49:33.306Z,5.53
2023-05-05T14:51:36.854Z,1.93
2023-05-05T14:53:40.618Z,4.33
2023-05-05T14:55:44.510Z,3.20
2023-05-05T14:57:47.840Z,3.80
2023-05-05T14:59:53.084Z,3.40
2023-05-05T15:01:57.120Z,7.23
2023-05-05T15:04:00.590Z,3.57
2023-05-05T15:06:04.736Z,6.20
2023-05-05T15:08:08.048Z,7.87
2023-05-05T15:10:12.065Z,3.13
2023-05-05T15:12:15.506Z,3.77
2023-05-05T15:14:18.854Z,3.97
2023-05-05T15:16:23.624Z,3.60
2023-05-05T15:18:27.017Z,5.00
2023-05-05T15:20:30.721Z,2.63
2023-05-05T15:22:34.251Z,4.50
2023-05-05T15:24:38.231Z,1.97
2023-05-05T15:26:41.649Z,2.80
2023-05-05T15:28:44.977Z,2.60
2023-05-05T15:30:48.358Z,2.33
2023-05-05T15:32:53.102Z,3.50
2023-05-05T15:34:56.561Z,5.70
2023-05-05T15:36:59.873Z,1.87
2023-05-05T15:39:03.293Z,2.67
2023-05-05T15:41:07.715Z,1.77
2023-05-05T15:43:11.012Z,2.10
2023-05-05T15:45:14.953Z,2.50
2023-05-05T15:47:18.867Z,2.63
2023-05-05T15:49:23.902Z,2.20
2023-05-05T15:51:27.359Z,5.00
2023-05-05T15:53:30.768Z,4.40
2023-05-05T15:55:34.185Z,3.10
2023-05-05T15:57:39.637Z,1.63
2023-05-05T15:59:42.952Z,2.20
2023-05-05T16:01:47.612Z,2.57
2023-05-05T16:03:51.095Z,2.30
2023-05-05T16:05:55.836Z,1.70
2023-05-05T16:07:59.159Z,3.30
2023-05-05T16:10:02.545Z,1.10
2023-05-05T16:12:06.500Z,2.60
2023-05-05T16:14:09.794Z,6.00
2023-05-05T16:16:13.095Z,6.17
2023-05-05T16:18:16.434Z,3.27
2023-05-05T16:20:19.941Z,3.07
2023-05-05T16:22:24.640Z,2.20
2023-05-05T16:24:28.118Z,2.00
2023-05-05T16:26:31.496Z,1.60
2023-05-05T16:28:34.790Z,1.77
2023-05-05T16:30:39.748Z,1.30
2023-05-05T16:32:43.459Z,1.40
2023-05-05T16:34:46.833Z,2.33
2023-05-05T16:36:50.178Z,2.00
2023-05-05T16:38:54.930Z,2.17
2023-05-05T16:40:58.286Z,2.23
2023-05-05T16:43:01.715Z,2.63
2023-05-05T16:45:06.780Z,1.70
2023-05-05T16:47:10.890Z,1.50
2023-05-05T16:49:14.323Z,1.53
2023-05-05T16:51:17.738Z,1.87
2023-05-05T16:53:21.018Z,2.60
2023-05-05T16:55:25.863Z,2.63
2023-05-05T16:57:29.309Z,2.37
2023-05-05T16:59:32.614Z,2.03
2023-05-05T17:01:36.131Z,3.13
2023-05-05T17:03:40.181Z,3.77
2023-05-05T17:05:43.588Z,3.63
2023-05-05T17:07:48.229Z,4.10
2023-05-05T17:09:54.460Z,3.77
2023-05-05T17:11:59.255Z,3.90
2023-05-05T17:14:02.708Z,3.50
2023-05-05T17:16:06.441Z,5.00
2023-05-05T17:18:10.168Z,4.33
2023-05-05T17:20:14.063Z,3.93
2023-05-05T17:22:17.504Z,4.27
2023-05-05T17:24:20.992Z,17.60
2023-05-05T17:26:24.312Z,7.13
2023-05-05T17:28:29.068Z,5.83
2023-05-05T17:30:32.518Z,5.40
2023-05-05T17:32:36.178Z,5.60
2023-05-05T17:34:41.006Z,4.60
2023-05-05T17:36:44.425Z,5.40
2023-05-05T17:38:47.926Z,8.10
2023-05-05T17:40:52.166Z,6.70
2023-05-05T17:42:55.542Z,7.93
2023-05-05T17:45:00.587Z,6.70
2023-05-05T17:47:04.022Z,6.50
2023-05-05T17:49:07.576Z,6.90
2023-05-05T17:51:11.137Z,6.50
2023-05-05T17:53:14.471Z,6.07
2023-05-05T17:55:18.039Z,5.73
2023-05-05T17:57:22.698Z,6.53
2023-05-05T17:59:26.254Z,6.40
2023-05-05T18:01:30.996Z,8.30
2023-05-05T18:03:34.535Z,7.37
2023-05-05T18:05:37.943Z,7.40
2023-05-05T18:07:41.347Z,7.93
2023-05-05T18:09:44.736Z,10.77
2023-05-05T18:11:48.524Z,7.60
2023-05-05T18:13:51.849Z,8.80
2023-05-05T18:15:55.189Z,7.63
2023-05-05T18:17:59.926Z,8.47
2023-05-05T18:20:04.137Z,7.93
2023-05-05T18:22:07.436Z,9.20
2023-05-05T18:24:19.405Z,16.47
2023-05-05T18:26:23.591Z,12.63
2023-05-05T18:28:26.850Z,12.67
2023-05-05T18:30:30.384Z,10.90
2023-05-05T18:32:33.919Z,10.10
2023-05-05T18:34:38.737Z,11.07
2023-05-05T18:36:42.091Z,11.03
2023-05-05T18:38:45.513Z,16.40
2023-05-05T18:40:49.094Z,22.47
2023-05-05T18:42:52.408Z,18.07
2023-05-05T18:44:55.784Z,16.07
2023-05-05T18:46:59.904Z,13.40
2023-05-05T18:49:03.526Z,13.03
2023-05-05T18:51:08.455Z,11.97
2023-05-05T18:53:13.621Z,12.67
2023-05-05T18:55:17.139Z,19.50
2023-05-05T18:57:20.543Z,15.83
2023-05-05T18:59:24.074Z,15.73
2023-05-05T19:01:30.132Z,14.60
2023-05-05T19:03:35.587Z,14.23
2023-05-05T19:05:40.578Z,14.53
2023-05-05T19:07:45.426Z,12.00
2023-05-05T19:09:48.858Z,11.27
2023-05-05T19:11:53.007Z,13.70
2023-05-05T19:13:56.634Z,12.50
2023-05-05T19:15:59.995Z,11.30
2023-05-05T19:18:05.518Z,12.03
2023-05-05T19:20:10.206Z,15.03
2023-05-05T19:22:13.576Z,19.97
2023-05-05T19:24:18.292Z,17.47
2023-05-05T19:26:21.760Z,14.90
2023-05-05T19:28:25.145Z,13.20
2023-05-05T19:30:28.622Z,12.20
2023-05-05T19:32:31.991Z,20.03
2023-05-05T19:34:35.502Z,19.07
2023-05-05T19:36:39.283Z,16.50
2023-05-05T19:38:44.442Z,15.27
2023-05-05T19:40:50.170Z,14.20
2023-05-05T19:42:53.488Z,11.90
2023-05-05T19:44:56.833Z,12.63
2023-05-05T19:47:00.253Z,11.83
2023-05-05T19:49:03.777Z,11.13
2023-05-05T19:51:07.206Z,13.07
2023-05-05T19:53:10.720Z,12.30
2023-05-05T19:55:14.060Z,12.37
2023-05-05T19:57:22.212Z,26.53
2023-05-05T19:59:26.012Z,22.40
2023-05-05T20:01:30.130Z,20.57
2023-05-05T20:03:33.576Z,15.63
2023-05-05T20:05:37.962Z,15.30
2023-05-05T20:07:42.086Z,13.07
2023-05-05T20:09:45.440Z,14.17
2023-05-05T20:11:48.726Z,12.70
2023-05-05T20:13:53.619Z,13.63
2023-05-05T20:15:57.032Z,12.53
2023-05-05T20:18:00.462Z,14.57
2023-05-05T20:20:04.004Z,16.50
2023-05-05T20:22:07.477Z,14.10
2023-05-05T20:24:10.781Z,12.80
2023-05-05T20:26:14.290Z,13.07
2023-05-05T20:28:17.640Z,13.97
2023-05-05T20:30:22.719Z,13.17
2023-05-05T20:32:26.088Z,14.30
2023-05-05T20:34:29.577Z,12.30
2023-05-05T20:36:33.010Z,13.43
2023-05-05T20:38:36.372Z,13.73
2023-05-05T20:40:41.401Z,9.50
2023-05-05T20:42:44.770Z,11.10
2023-05-05T20:44:48.101Z,11.37
2023-05-05T20:46:52.893Z,12.57
2023-05-05T20:48:56.319Z,17.07
2023-05-05T20:50:59.756Z,19.50
2023-05-05T20:53:03.294Z,15.40
2023-05-05T20:55:07.628Z,17.33
2023-05-05T20:57:11.472Z,18.60
2023-05-05T20:59:14.870Z,15.90
2023-05-05T21:01:18.518Z,13.97
2023-05-05T21:03:23.236Z,12.37
2023-05-05T21:05:26.957Z,11.63
2023-05-05T21:07:31.301Z,10.90
2023-05-05T21:09:35.765Z,10.37
2023-05-05T21:11:39.192Z,9.90
2023-05-05T21:13:42.599Z,10.80
2023-05-05T21:15:46.090Z,11.07
2023-05-05T21:17:49.730Z,10.00
2023-05-05T21:19:54.923Z,10.53
2023-05-05T21:21:59.271Z,9.33
2023-05-05T21:24:03.834Z,9.47
2023-05-05T21:26:08.920Z,9.37
2023-05-05T21:28:12.270Z,10.00
2023-05-05T21:30:16.602Z,8.60
2023-05-05T21:32:20.488Z,9.37
2023-05-05T21:34:24.059Z,8.43
2023-05-05T21:36:29.066Z,9.07
2023-05-05T21:38:32.445Z,10.27
2023-05-05T21:40:35.974Z,8.83
2023-05-05T21:42:39.403Z,10.67
2023-05-05T21:44:42.803Z,10.07
2023-05-05T21:46:46.333Z,9.87
2023-05-05T21:48:49.960Z,9.67
2023-05-05T21:50:53.621Z,11.67
2023-05-05T21:52:58.396Z,12.60
2023-05-05T21:55:01.991Z,11.47
2023-05-05T21:57:06.308Z,13.47
2023-05-05T21:59:09.759Z,13.00
2023-05-05T22:01:13.227Z,11.23
2023-05-05T22:03:16.895Z,10.77
2023-05-05T22:05:20.596Z,10.90
2023-05-05T22:07:24.868Z,10.00
2023-05-05T22:09:29.688Z,10.47
2023-05-05T22:11:33.045Z,8.83
2023-05-05T22:13:37.498Z,8.70
2023-05-05T22:15:46.662Z,10.57
2023-05-05T22:17:50.949Z,10.43
2023-05-05T22:19:54.287Z,11.60
2023-05-05T22:21:58.554Z,10.57
2023-05-05T22:24:02.239Z,10.33
2023-05-05T22:26:07.042Z,9.33
2023-05-05T22:28:10.329Z,11.13
2023-05-05T22:30:14.767Z,8.83
2023-05-05T22:32:18.091Z,12.07
2023-05-05T22:34:21.870Z,11.57
2023-05-05T22:36:25.918Z,11.50
2023-05-05T22:38:29.344Z,10.30
2023-05-05T22:40:32.852Z,15.40
2023-05-05T22:42:37.710Z,10.20
2023-05-05T22:44:41.079Z,10.30
2023-05-05T22:46:44.452Z,10.00
2023-05-05T22:48:47.940Z,10.43
2023-05-05T22:50:51.561Z,11.30
2023-05-05T22:52:57.938Z,12.20
2023-05-05T22:55:01.340Z,10.23
2023-05-05T22:57:04.866Z,10.53
2023-05-05T22:59:09.571Z,11.63
2023-05-05T23:01:13.548Z,11.03
2023-05-05T23:03:17.082Z,10.50
2023-05-05T23:05:20.517Z,9.37
2023-05-05T23:07:23.979Z,8.87
2023-05-05T23:09:27.357Z,10.20
2023-05-05T23:11:30.748Z,11.17
2023-05-05T23:13:36.984Z,12.30
2023-05-05T23:15:41.922Z,14.10
2023-05-05T23:17:45.426Z,9.70
2023-05-05T23:19:49.238Z,9.50
2023-05-05T23:21:53.813Z,9.77
2023-05-05T23:23:57.322Z,11.87
2023-05-05T23:26:00.702Z,9.63
2023-05-05T23:28:04.175Z,12.67
2023-05-05T23:30:09.147Z,11.27
2023-05-05T23:32:14.039Z,11.60
2023-05-05T23:34:17.550Z,12.73
2023-05-05T23:36:20.973Z,12.53
2023-05-05T23:38:24.382Z,12.50
2023-05-05T23:40:27.913Z,13.30
2023-05-05T23:42:31.270Z,14.27
2023-05-05T23:44:34.884Z,13.67
2023-05-05T23:46:38.329Z,10.10
2023-05-05T23:48:43.301Z,11.87
2023-05-05T23:50:46.666Z,15.27
2023-05-05T23:52:50.089Z,13.67
2023-05-05T23:54:53.377Z,11.80
2023-05-05T23:56:56.848Z,13.00
2023-05-05T23:59:00.188Z,13.00
